createdAt,value
2022-10-28T00:01:09.491Z,11.02
2022-10-28T00:03:44.363Z,10.82
2022-10-28T00:06:18.534Z,9.85
2022-10-28T00:08:45.698Z,8.45
2022-10-28T00:11:17.539Z,10.10
2022-10-28T00:13:45.809Z,9.85
2022-10-28T00:16:14.121Z,10.45
2022-10-28T00:18:41.529Z,11.48
2022-10-28T00:21:14.966Z,12.13
2022-10-28T00:23:42.405Z,15.20
2022-10-28T00:26:12.683Z,10.70
2022-10-28T00:28:54.344Z,9.60
2022-10-28T00:31:23.337Z,10.50
2022-10-28T00:33:50.661Z,8.55
2022-10-28T00:36:26.141Z,9.85
2022-10-28T00:38:54.953Z,10.13
2022-10-28T00:41:24.974Z,11.38
2022-10-28T00:43:54.858Z,15.27
2022-10-28T00:46:37.721Z,10.07
2022-10-28T00:49:13.031Z,11.20
2022-10-28T00:51:40.016Z,10.70
2022-10-28T00:54:07.819Z,12.68
2022-10-28T00:56:39.847Z,14.80
2022-10-28T00:59:11.407Z,9.02
2022-10-28T01:01:38.203Z,11.48
2022-10-28T01:04:05.226Z,12.40
2022-10-28T01:06:31.922Z,10.27
2022-10-28T01:09:00.109Z,11.07
2022-10-28T01:11:42.325Z,15.70
2022-10-28T01:14:24.402Z,12.02
2022-10-28T01:17:07.847Z,12.13
2022-10-28T01:19:43.685Z,12.52
2022-10-28T01:22:25.552Z,11.02
2022-10-28T01:25:24.677Z,10.63
2022-10-28T01:28:00.480Z,11.35
2022-10-28T01:30:33.510Z,8.10
2022-10-28T01:33:15.462Z,10.85
2022-10-28T01:36:15.358Z,11.27
2022-10-28T01:38:54.591Z,12.55
2022-10-28T01:41:44.636Z,10.90
2022-10-28T01:44:23.773Z,14.07
2022-10-28T01:47:17.960Z,13.15
2022-10-28T01:49:56.150Z,12.00
2022-10-28T01:52:26.937Z,10.68
2022-10-28T01:55:18.670Z,13.80
2022-10-28T01:57:48.613Z,11.57
2022-10-28T02:00:15.882Z,10.38
2022-10-28T02:02:44.022Z,10.25
2022-10-28T02:05:39.029Z,11.25
2022-10-28T02:08:17.019Z,9.23
2022-10-28T02:11:00.189Z,8.65
2022-10-28T02:13:49.303Z,9.80
2022-10-28T02:16:43.973Z,12.13
2022-10-28T02:19:37.000Z,11.38
2022-10-28T02:22:21.061Z,13.07
2022-10-28T02:25:04.120Z,8.93
2022-10-28T02:27:37.544Z,11.60
2022-10-28T02:30:04.343Z,13.25
2022-10-28T02:32:38.503Z,10.90
2022-10-28T02:35:11.978Z,10.85
2022-10-28T02:37:42.069Z,15.05
2022-10-28T02:40:19.303Z,14.82
2022-10-28T02:42:50.526Z,13.43
2022-10-28T02:45:36.616Z,16.08
2022-10-28T02:48:36.700Z,13.40
2022-10-28T02:51:11.089Z,15.68
2022-10-28T02:53:56.947Z,12.38
2022-10-28T02:56:24.104Z,14.60
2022-10-28T02:58:51.191Z,15.55
2022-10-28T03:01:18.150Z,14.48
2022-10-28T03:03:45.295Z,18.85
2022-10-28T03:06:12.167Z,13.15
2022-10-28T03:08:38.882Z,15.57
2022-10-28T03:11:05.803Z,15.40
2022-10-28T03:13:32.601Z,15.47
2022-10-28T03:15:59.293Z,17.13
2022-10-28T03:18:27.193Z,15.93
2022-10-28T03:20:56.687Z,18.30
2022-10-28T03:23:25.741Z,24.03
2022-10-28T03:25:52.564Z,16.87
2022-10-28T03:28:19.323Z,24.23
2022-10-28T03:30:46.069Z,18.70
2022-10-28T03:33:12.850Z,20.17
2022-10-28T03:35:39.581Z,26.45
2022-10-28T03:38:06.354Z,21.20
2022-10-28T03:40:34.250Z,21.87
2022-10-28T03:43:01.118Z,18.33
2022-10-28T03:47:59.837Z,20.10
2022-10-28T03:50:26.564Z,22.27
2022-10-28T03:52:53.471Z,19.77
2022-10-28T03:55:20.209Z,15.73
2022-10-28T03:57:46.958Z,19.08
2022-10-28T04:00:14.586Z,17.30
2022-10-28T04:02:41.319Z,18.60
2022-10-28T04:05:08.552Z,18.38
2022-10-28T04:07:35.510Z,17.27
2022-10-28T04:10:02.377Z,18.23
2022-10-28T04:12:29.173Z,13.70
2022-10-28T04:14:55.977Z,18.27
2022-10-28T04:17:22.711Z,16.47
2022-10-28T04:19:49.631Z,23.58
2022-10-28T04:22:16.932Z,18.70
2022-10-28T04:24:44.751Z,20.93
2022-10-28T04:27:11.546Z,15.30
2022-10-28T04:29:38.303Z,15.40
2022-10-28T04:32:05.264Z,15.60
2022-10-28T04:34:32.008Z,17.73
2022-10-28T04:36:58.707Z,17.20
2022-10-28T04:39:25.505Z,20.70
2022-10-28T04:41:52.275Z,16.73
2022-10-28T04:44:18.983Z,15.65
2022-10-28T04:46:45.765Z,21.37
2022-10-28T04:49:12.548Z,17.97
2022-10-28T04:51:39.399Z,17.80
2022-10-28T04:54:06.481Z,18.63
2022-10-28T04:56:33.360Z,18.73
2022-10-28T04:59:00.115Z,18.37
2022-10-28T05:01:26.900Z,22.73
2022-10-28T05:03:53.969Z,19.47
2022-10-28T05:06:20.765Z,20.53
2022-10-28T05:08:47.502Z,20.70
2022-10-28T05:11:14.353Z,18.13
2022-10-28T05:13:41.296Z,18.90
2022-10-28T05:16:08.582Z,17.30
2022-10-28T05:18:35.373Z,22.17
2022-10-28T05:21:02.178Z,20.77
2022-10-28T05:23:30.775Z,16.27
2022-10-28T05:25:58.305Z,20.00
2022-10-28T05:28:25.259Z,19.27
2022-10-28T05:30:52.013Z,15.35
2022-10-28T05:33:18.780Z,19.17
2022-10-28T05:35:45.625Z,24.93
2022-10-28T05:38:12.443Z,18.40
2022-10-28T05:40:39.470Z,17.87
2022-10-28T05:43:06.225Z,18.70
2022-10-28T05:45:33.011Z,19.47
2022-10-28T05:47:59.959Z,20.07
2022-10-28T05:50:26.936Z,18.70
2022-10-28T05:52:55.893Z,16.83
2022-10-28T05:55:27.714Z,27.17
2022-10-28T05:57:55.819Z,18.97
2022-10-28T06:00:25.453Z,18.90
2022-10-28T06:02:52.576Z,18.88
2022-10-28T06:05:19.690Z,19.33
2022-10-28T06:07:46.406Z,20.60
2022-10-28T06:10:13.129Z,16.60
2022-10-28T06:12:38.547Z,20.07
2022-10-28T06:15:05.955Z,20.03
2022-10-28T06:17:32.788Z,21.20
2022-10-28T06:19:59.571Z,17.90
2022-10-28T06:22:26.299Z,24.77
2022-10-28T06:24:53.043Z,16.23
2022-10-28T06:27:19.796Z,17.83
2022-10-28T06:29:46.565Z,20.97
2022-10-28T06:32:13.272Z,14.30
2022-10-28T06:34:40.152Z,21.27
2022-10-28T06:37:08.963Z,21.57
2022-10-28T06:39:37.004Z,14.25
2022-10-28T06:42:03.974Z,19.13
2022-10-28T06:44:31.320Z,14.53
2022-10-28T06:46:59.697Z,16.00
2022-10-28T06:49:27.552Z,15.33
2022-10-28T06:51:54.242Z,16.80
2022-10-28T06:54:20.939Z,10.90
2022-10-28T06:56:47.880Z,16.20
2022-10-28T06:59:14.630Z,12.07
2022-10-28T07:01:41.832Z,14.93
2022-10-28T07:04:12.160Z,13.88
2022-10-28T07:06:39.715Z,13.25
2022-10-28T07:09:07.181Z,14.45
2022-10-28T07:11:34.138Z,10.70
2022-10-28T07:14:01.021Z,12.27
2022-10-28T07:16:27.843Z,16.30
2022-10-28T07:18:54.535Z,12.07
2022-10-28T07:21:24.390Z,15.27
2022-10-28T07:23:51.258Z,14.00
2022-10-28T07:26:17.994Z,13.32
2022-10-28T07:28:44.736Z,13.00
2022-10-28T07:33:43.525Z,13.10
2022-10-28T07:36:10.539Z,11.00
2022-10-28T07:38:37.380Z,12.20
2022-10-28T07:41:09.373Z,13.70
2022-10-28T07:43:37.762Z,11.48
2022-10-28T07:46:06.293Z,13.05
2022-10-28T07:48:36.390Z,14.68
2022-10-28T07:51:05.021Z,13.25
2022-10-28T07:53:32.344Z,16.63
2022-10-28T07:56:01.722Z,11.82
2022-10-28T07:58:29.086Z,13.30
2022-10-28T08:00:56.101Z,13.48
2022-10-28T08:03:31.212Z,12.70
2022-10-28T08:06:11.724Z,12.85
2022-10-28T08:08:39.350Z,12.32
2022-10-28T08:11:14.224Z,13.63
2022-10-28T08:13:41.644Z,14.90
2022-10-28T08:16:09.217Z,9.40
2022-10-28T08:18:36.806Z,13.00
2022-10-28T08:21:05.139Z,10.77
2022-10-28T08:23:32.438Z,11.88
2022-10-28T08:25:59.304Z,13.18
2022-10-28T08:28:26.063Z,10.88
2022-10-28T08:31:08.363Z,7.45
2022-10-28T08:33:38.009Z,8.63
2022-10-28T08:36:05.977Z,6.60
2022-10-28T08:38:32.838Z,9.63
2022-10-28T08:41:05.577Z,10.80
2022-10-28T08:43:57.562Z,8.48
2022-10-28T08:46:39.551Z,7.15
2022-10-28T08:49:12.830Z,8.55
2022-10-28T08:51:52.840Z,9.60
2022-10-28T08:54:39.796Z,10.77
2022-10-28T08:57:18.038Z,11.00
2022-10-28T08:59:46.123Z,10.18
2022-10-28T09:02:12.834Z,14.35
2022-10-28T09:04:43.424Z,11.20
2022-10-28T09:07:22.269Z,7.45
2022-10-28T09:09:51.434Z,10.00
2022-10-28T09:12:44.663Z,9.25
2022-10-28T09:15:23.627Z,8.80
2022-10-28T09:17:58.837Z,10.63
2022-10-28T09:20:55.045Z,8.25
2022-10-28T09:23:23.654Z,10.60
2022-10-28T09:26:05.013Z,8.25
2022-10-28T09:28:43.941Z,11.00
2022-10-28T09:31:49.295Z,9.30
2022-10-28T09:34:36.644Z,8.13
2022-10-28T09:37:19.978Z,7.18
2022-10-28T09:40:01.431Z,15.02
2022-10-28T09:45:21.792Z,7.60
2022-10-28T09:47:58.478Z,5.90
2022-10-28T09:50:29.986Z,10.25
2022-10-28T09:53:08.378Z,7.60
2022-10-28T09:55:35.297Z,15.43
2022-10-28T09:58:04.441Z,9.35
2022-10-28T10:00:32.013Z,14.05
2022-10-28T10:02:59.372Z,6.47
2022-10-28T10:05:27.176Z,11.73
2022-10-28T10:08:06.990Z,13.82
2022-10-28T10:10:47.875Z,11.88
2022-10-28T10:13:18.843Z,9.70
2022-10-28T10:15:51.101Z,7.07
2022-10-28T10:18:30.595Z,7.43
2022-10-28T10:21:01.244Z,10.07
2022-10-28T10:23:31.362Z,6.05
2022-10-28T10:26:12.293Z,12.93
2022-10-28T10:28:48.486Z,9.77
2022-10-28T10:31:21.475Z,7.78
2022-10-28T10:33:51.313Z,13.10
2022-10-28T10:36:23.689Z,10.35
2022-10-28T10:38:58.739Z,9.82
2022-10-28T10:41:44.805Z,7.68
2022-10-28T10:44:30.104Z,15.63
2022-10-28T10:47:04.912Z,8.18
2022-10-28T10:49:36.959Z,10.05
2022-10-28T10:52:16.717Z,12.27
2022-10-28T10:54:57.283Z,11.23
2022-10-28T10:57:25.780Z,9.85
2022-10-28T10:59:54.591Z,8.05
2022-10-28T11:02:32.502Z,8.45
2022-10-28T11:05:09.266Z,9.48
2022-10-28T11:07:40.458Z,8.57
2022-10-28T11:10:28.070Z,7.47
2022-10-28T11:12:57.848Z,7.78
2022-10-28T11:15:28.498Z,7.32
2022-10-28T11:17:55.581Z,8.52
2022-10-28T11:20:26.126Z,6.88
2022-10-28T11:23:14.993Z,9.02
2022-10-28T11:25:50.143Z,13.73
2022-10-28T11:28:50.995Z,8.98
2022-10-28T11:31:44.415Z,9.52
2022-10-28T11:34:56.087Z,8.02
2022-10-28T11:37:37.035Z,7.60
2022-10-28T11:40:29.054Z,12.18
2022-10-28T11:43:17.157Z,11.52
2022-10-28T11:46:03.779Z,10.93
2022-10-28T11:48:45.405Z,7.47
2022-10-28T11:51:47.542Z,12.63
2022-10-28T11:54:33.097Z,8.73
2022-10-28T11:57:09.171Z,8.95
2022-10-28T12:00:00.044Z,7.47
2022-10-28T12:02:53.186Z,9.15
2022-10-28T12:05:30.676Z,9.77
2022-10-28T12:08:15.774Z,9.18
2022-10-28T12:11:11.852Z,12.95
2022-10-28T12:14:05.412Z,15.43
2022-10-28T12:16:54.056Z,8.77
2022-10-28T12:19:32.596Z,7.70
2022-10-28T12:22:09.047Z,9.40
2022-10-28T12:24:39.018Z,6.32
2022-10-28T12:27:36.197Z,8.52
2022-10-28T12:30:20.951Z,6.70
2022-10-28T12:33:04.071Z,8.95
2022-10-28T12:35:36.402Z,11.13
2022-10-28T12:38:32.400Z,7.72
2022-10-28T12:41:13.042Z,10.00
2022-10-28T12:43:47.348Z,10.13
2022-10-28T12:46:30.387Z,10.77
2022-10-28T12:49:05.379Z,9.82
2022-10-28T12:51:41.362Z,7.40
2022-10-28T12:54:15.002Z,8.75
2022-10-28T12:56:50.594Z,8.70
2022-10-28T12:59:41.585Z,11.18
2022-10-28T13:02:22.159Z,12.70
2022-10-28T13:04:49.739Z,10.75
2022-10-28T13:08:01.102Z,9.77
2022-10-28T13:10:42.186Z,12.27
2022-10-28T13:13:41.773Z,7.15
2022-10-28T13:16:08.598Z,8.88
2022-10-28T13:19:26.220Z,8.30
2022-10-28T13:22:09.347Z,11.15
2022-10-28T13:24:36.276Z,10.63
2022-10-28T13:27:05.257Z,14.85
2022-10-28T13:29:34.848Z,10.98
2022-10-28T13:32:02.072Z,9.95
2022-10-28T13:34:37.681Z,15.18
2022-10-28T13:37:07.707Z,9.52
2022-10-28T13:39:37.463Z,15.35
2022-10-28T13:42:13.275Z,8.88
2022-10-28T13:45:29.063Z,8.88
2022-10-28T13:48:38.534Z,7.97
2022-10-28T13:51:11.366Z,11.13
2022-10-28T13:53:47.239Z,12.70
2022-10-28T13:56:20.857Z,8.90
2022-10-28T13:58:57.567Z,9.07
2022-10-28T14:02:01.287Z,9.30
2022-10-28T14:04:34.227Z,10.52
2022-10-28T14:07:22.953Z,12.90
2022-10-28T14:09:53.504Z,8.98
2022-10-28T14:12:25.622Z,9.43
2022-10-28T14:15:07.381Z,13.88
2022-10-28T14:17:39.661Z,12.18
2022-10-28T14:20:43.318Z,9.50
2022-10-28T14:23:21.976Z,16.17
2022-10-28T14:25:51.776Z,6.05
2022-10-28T14:28:27.641Z,13.60
2022-10-28T14:31:12.420Z,8.95
2022-10-28T14:33:51.340Z,11.52
2022-10-28T14:36:18.191Z,10.13
2022-10-28T14:39:03.777Z,13.00
2022-10-28T14:41:54.616Z,13.02
2022-10-28T14:44:47.658Z,8.80
2022-10-28T14:47:39.330Z,12.40
2022-10-28T14:50:21.446Z,10.82
2022-10-28T14:52:50.736Z,9.98
2022-10-28T14:55:30.812Z,10.50
2022-10-28T14:58:22.689Z,10.05
2022-10-28T15:01:20.651Z,10.27
2022-10-28T15:03:52.053Z,15.07
2022-10-28T15:06:21.886Z,12.98
2022-10-28T15:08:48.806Z,11.75
2022-10-28T15:11:17.805Z,13.50
2022-10-28T15:13:44.617Z,9.60
2022-10-28T15:16:23.486Z,10.50
2022-10-28T15:18:53.379Z,10.55
2022-10-28T15:21:22.479Z,11.57
2022-10-28T15:24:00.457Z,14.32
2022-10-28T15:26:27.513Z,10.73
2022-10-28T15:28:55.801Z,12.02
2022-10-28T15:31:22.857Z,13.45
2022-10-28T15:33:49.630Z,11.15
2022-10-28T15:36:22.218Z,11.18
2022-10-28T15:39:06.287Z,12.60
2022-10-28T15:41:52.415Z,8.75
2022-10-28T15:44:37.624Z,11.18
2022-10-28T15:47:35.374Z,13.40
2022-10-28T15:50:15.696Z,9.63
2022-10-28T15:52:44.085Z,10.50
2022-10-28T15:55:19.829Z,12.43
2022-10-28T15:57:48.992Z,12.55
2022-10-28T16:00:34.584Z,10.70
2022-10-28T16:03:02.633Z,9.75
2022-10-28T16:05:32.519Z,11.98
2022-10-28T16:08:01.864Z,12.85
2022-10-28T16:10:34.860Z,10.43
2022-10-28T16:13:07.626Z,9.73
2022-10-28T16:15:48.278Z,12.75
2022-10-28T16:18:15.559Z,8.75
2022-10-28T16:20:44.520Z,11.25
2022-10-28T16:23:16.735Z,12.35
2022-10-28T16:25:43.785Z,15.52
2022-10-28T16:28:19.763Z,14.43
2022-10-28T16:30:46.763Z,16.25
2022-10-28T16:33:13.531Z,10.73
2022-10-28T16:35:40.329Z,16.40
2022-10-28T16:38:12.778Z,14.95
2022-10-28T16:40:55.055Z,8.30
2022-10-28T16:43:24.549Z,12.07
2022-10-28T16:45:53.081Z,10.35
2022-10-28T16:48:22.186Z,10.30
2022-10-28T16:50:59.342Z,12.15
2022-10-28T16:53:26.263Z,11.48
2022-10-28T16:55:58.765Z,13.88
2022-10-28T16:58:27.056Z,13.82
2022-10-28T17:00:55.074Z,17.10
2022-10-28T17:03:22.350Z,15.02
2022-10-28T17:05:49.349Z,8.40
2022-10-28T17:08:16.100Z,14.20
2022-10-28T17:10:43.685Z,10.70
2022-10-28T17:13:15.119Z,8.43
2022-10-28T17:15:42.878Z,9.23
2022-10-28T17:18:11.379Z,13.23
2022-10-28T17:20:38.383Z,12.23
2022-10-28T17:23:05.836Z,11.02
2022-10-28T17:25:33.020Z,20.42
2022-10-28T17:27:59.783Z,16.45
2022-10-28T17:30:26.634Z,14.10
2022-10-28T17:32:54.221Z,16.40
2022-10-28T17:35:22.523Z,12.55
2022-10-28T17:37:49.585Z,10.10
2022-10-28T17:40:16.447Z,11.48
2022-10-28T17:42:43.187Z,11.73
2022-10-28T17:45:10.852Z,7.63
2022-10-28T17:47:37.734Z,11.45
2022-10-28T17:50:04.938Z,13.02
2022-10-28T17:52:35.687Z,13.65
2022-10-28T17:55:05.539Z,10.40
2022-10-28T17:57:32.285Z,14.02
2022-10-28T17:59:59.121Z,16.48
2022-10-28T18:02:26.159Z,12.20
2022-10-28T18:04:52.981Z,8.55
2022-10-28T18:07:19.735Z,16.75
2022-10-28T18:09:46.617Z,15.38
2022-10-28T18:12:13.370Z,11.32
2022-10-28T18:14:40.225Z,8.93
2022-10-28T18:17:07.124Z,14.18
2022-10-28T18:19:33.961Z,14.35
2022-10-28T18:22:00.731Z,12.05
2022-10-28T18:24:27.502Z,10.30
2022-10-28T18:26:55.855Z,13.48
2022-10-28T18:29:22.692Z,12.90
2022-10-28T18:31:49.709Z,8.65
2022-10-28T18:34:16.881Z,13.77
2022-10-28T18:36:43.984Z,12.80
2022-10-28T18:39:10.798Z,10.90
2022-10-28T18:41:41.850Z,13.98
2022-10-28T18:44:17.415Z,14.02
2022-10-28T18:46:45.834Z,11.75
2022-10-28T18:49:12.675Z,15.93
2022-10-28T18:51:39.579Z,16.65
2022-10-28T18:54:06.393Z,13.77
2022-10-28T18:56:34.333Z,12.27
2022-10-28T18:59:03.496Z,10.80
2022-10-28T19:01:31.806Z,11.27
2022-10-28T19:04:01.355Z,14.35
2022-10-28T19:06:32.312Z,13.27
2022-10-28T19:09:01.649Z,18.50
2022-10-28T19:11:32.624Z,14.05
2022-10-28T19:14:01.207Z,8.38
2022-10-28T19:16:28.732Z,13.77
2022-10-28T19:18:57.235Z,11.02
2022-10-28T19:21:25.067Z,10.75
2022-10-28T19:23:51.922Z,17.05
2022-10-28T19:26:19.344Z,14.57
2022-10-28T19:28:48.047Z,16.88
2022-10-28T19:31:17.702Z,17.70
2022-10-28T19:33:45.366Z,13.15
2022-10-28T19:36:18.964Z,15.45
2022-10-28T19:38:47.871Z,18.27
2022-10-28T19:41:17.157Z,18.27
2022-10-28T19:43:44.868Z,13.88
2022-10-28T19:46:13.294Z,15.80
2022-10-28T19:48:42.235Z,17.05
2022-10-28T19:51:14.868Z,13.52
2022-10-28T19:53:46.494Z,13.45
2022-10-28T19:58:40.932Z,15.07
2022-10-28T20:01:09.254Z,13.90
2022-10-28T20:03:38.592Z,19.85
2022-10-28T20:06:09.064Z,17.02
2022-10-28T20:08:37.601Z,10.80
2022-10-28T20:11:10.050Z,14.10
2022-10-28T20:13:37.045Z,10.88
2022-10-28T20:16:11.417Z,18.42
2022-10-28T20:18:38.569Z,16.83
2022-10-28T20:21:10.042Z,13.23
2022-10-28T20:23:38.559Z,16.38
2022-10-28T20:26:06.911Z,13.52
2022-10-28T20:28:34.550Z,15.73
2022-10-28T20:31:09.873Z,15.15
2022-10-28T20:33:38.626Z,11.55
2022-10-28T20:36:07.358Z,11.52
2022-10-28T20:38:34.731Z,14.20
2022-10-28T20:41:01.631Z,15.13
2022-10-28T20:43:29.360Z,13.93
2022-10-28T20:46:01.378Z,14.73
2022-10-28T20:48:30.310Z,16.52
2022-10-28T20:51:01.722Z,13.65
2022-10-28T20:53:33.209Z,16.67
2022-10-28T20:56:01.568Z,17.27
2022-10-28T20:58:30.935Z,15.20
2022-10-28T21:01:11.854Z,15.90
2022-10-28T21:03:40.922Z,17.10
2022-10-28T21:06:08.141Z,19.63
2022-10-28T21:08:34.980Z,12.52
2022-10-28T21:11:03.367Z,18.35
2022-10-28T21:13:30.792Z,20.85
2022-10-28T21:15:58.057Z,15.77
2022-10-28T21:18:25.301Z,17.23
2022-10-28T21:20:57.262Z,16.23
2022-10-28T21:23:24.562Z,22.30
2022-10-28T21:25:56.172Z,17.75
2022-10-28T21:28:23.517Z,20.83
2022-10-28T21:30:50.238Z,16.30
2022-10-28T21:33:18.924Z,15.02
2022-10-28T21:35:54.752Z,19.33
2022-10-28T21:38:21.711Z,20.33
2022-10-28T21:40:48.431Z,18.75
2022-10-28T21:43:15.719Z,16.35
2022-10-28T21:45:42.479Z,14.38
2022-10-28T21:48:09.227Z,16.20
2022-10-28T21:50:35.974Z,18.85
2022-10-28T21:53:04.050Z,12.13
2022-10-28T21:55:46.192Z,16.67
2022-10-28T21:58:14.040Z,17.48
2022-10-28T22:00:40.836Z,18.98
2022-10-28T22:03:07.746Z,21.95
2022-10-28T22:05:34.602Z,16.95
2022-10-28T22:08:04.427Z,14.07
2022-10-28T22:10:32.110Z,17.48
2022-10-28T22:12:59.081Z,11.48
2022-10-28T22:15:25.912Z,14.93
2022-10-28T22:17:52.820Z,14.40
2022-10-28T22:20:19.851Z,19.50
2022-10-28T22:22:46.654Z,14.07
2022-10-28T22:25:13.421Z,14.48
2022-10-28T22:27:40.273Z,15.25
2022-10-28T22:30:07.562Z,20.20
2022-10-28T22:32:34.321Z,21.38
2022-10-28T22:35:01.060Z,15.83
2022-10-28T22:37:27.814Z,15.83
2022-10-28T22:39:54.516Z,13.45
2022-10-28T22:42:21.348Z,17.63
2022-10-28T22:44:48.047Z,16.83
2022-10-28T22:47:14.726Z,16.30
2022-10-28T22:49:41.438Z,11.40
2022-10-28T22:52:08.147Z,19.00
2022-10-28T22:54:34.864Z,12.90
2022-10-28T22:57:01.797Z,16.67
2022-10-28T22:59:28.546Z,14.23
2022-10-28T23:01:55.474Z,19.77
2022-10-28T23:04:22.410Z,15.80
2022-10-28T23:06:49.254Z,9.93
2022-10-28T23:09:16.001Z,12.60
2022-10-28T23:11:42.796Z,16.58
2022-10-28T23:14:09.502Z,15.90
2022-10-28T23:16:36.257Z,13.60
2022-10-28T23:19:03.040Z,15.75
2022-10-28T23:21:29.816Z,28.23
2022-10-28T23:23:58.931Z,17.45
2022-10-28T23:26:27.902Z,13.13
2022-10-28T23:28:57.435Z,23.25
2022-10-28T23:31:24.349Z,18.73
2022-10-28T23:33:52.376Z,18.80
2022-10-28T23:36:19.090Z,14.73
2022-10-28T23:38:46.177Z,16.57
2022-10-28T23:41:16.128Z,15.48
2022-10-28T23:43:43.047Z,15.90
2022-10-28T23:46:10.775Z,13.50
2022-10-28T23:48:37.837Z,14.17
2022-10-28T23:51:04.804Z,12.80
2022-10-28T23:53:31.663Z,15.27
2022-10-28T23:55:58.812Z,20.67
2022-10-28T23:58:25.740Z,16.10
